Time;durP1;ratioP1;P1;durP2;ratioP2;P2;SDS_P1;SDS_P2;PMS_P1;PMS_P2;Temp;Humidity;BMP_temperature;BMP_pressure;BME280_temperature;BME280_humidity;BME280_pressure;Samples;Min_cycle;Max_cycle;Signal;HPM_P1;HPM_P2
2022/07/31 00:01:33;;;;;;;9.10;3.00;;;;;;;;;;5007199;28;20094;-66
2022/07/31 00:03:59;;;;;;;9.32;2.70;;;;;;;;;;5024316;28;20165;-67
2022/07/31 00:06:25;;;;;;;9.40;2.90;;;;;;;;;;5028797;28;20032;-67
2022/07/31 00:08:51;;;;;;;9.52;2.78;;;;;;;;;;5029998;28;20045;-67
2022/07/31 00:11:18;;;;;;;11.27;3.10;;;;;;;;;;5024823;28;20481;-68
2022/07/31 00:13:44;;;;;;;11.63;2.72;;;;;;;;;;5027256;28;20033;-65
2022/07/31 00:16:10;;;;;;;10.18;2.92;;;;;;;;;;5009382;28;20053;-67
2022/07/31 00:18:36;;;;;;;11.30;3.13;;;;;;;;;;5028982;28;20017;-65
2022/07/31 00:21:02;;;;;;;10.45;3.20;;;;;;;;;;5009202;28;20036;-65
2022/07/31 00:23:28;;;;;;;11.13;2.70;;;;;;;;;;5010666;28;20051;-65
2022/07/31 00:25:55;;;;;;;12.18;2.78;;;;;;;;;;5030029;28;20689;-65
2022/07/31 00:28:21;;;;;;;10.75;2.80;;;;;;;;;;5025882;28;20033;-65
2022/07/31 00:30:47;;;;;;;9.85;2.80;;;;;;;;;;5029679;28;20033;-66
2022/07/31 00:33:13;;;;;;;12.13;2.88;;;;;;;;;;5022565;28;20037;-65
2022/07/31 00:35:39;;;;;;;9.40;2.80;;;;;;;;;;5028429;28;20037;-66
2022/07/31 00:38:05;;;;;;;13.80;2.72;;;;;;;;;;5027124;28;20086;-66
2022/07/31 00:40:31;;;;;;;9.07;2.42;;;;;;;;;;5028742;28;20033;-66
2022/07/31 00:42:58;;;;;;;8.40;2.50;;;;;;;;;;5026388;28;21299;-66
2022/07/31 00:45:24;;;;;;;10.35;2.65;;;;;;;;;;5028949;28;20519;-66
2022/07/31 00:47:50;;;;;;;8.65;2.47;;;;;;;;;;5023448;28;20052;-66
2022/07/31 00:50:16;;;;;;;9.23;2.65;;;;;;;;;;5027479;28;20033;-65
2022/07/31 00:52:43;;;;;;;12.15;2.75;;;;;;;;;;5029621;28;20277;-66
2022/07/31 00:55:09;;;;;;;9.80;2.40;;;;;;;;;;5006448;28;20048;-66
2022/07/31 00:57:35;;;;;;;6.93;2.40;;;;;;;;;;5028506;28;20076;-66
2022/07/31 01:00:01;;;;;;;9.30;2.38;;;;;;;;;;5021187;28;20136;-66
2022/07/31 01:02:28;;;;;;;8.88;2.65;;;;;;;;;;5019307;28;20029;-65
2022/07/31 01:04:54;;;;;;;9.05;2.42;;;;;;;;;;5024255;28;20021;-66
2022/07/31 01:07:20;;;;;;;9.95;2.50;;;;;;;;;;5026010;28;20032;-65
2022/07/31 01:09:47;;;;;;;9.18;2.75;;;;;;;;;;5028375;28;20025;-66
2022/07/31 01:12:33;;;;;;;12.45;2.50;;;;;;;;;;5025923;28;20063;-65
2022/07/31 01:15:04;;;;;;;12.82;3.28;;;;;;;;;;5019721;28;20416;-65
2022/07/31 01:17:31;;;;;;;12.02;2.60;;;;;;;;;;5025322;28;20037;-65
2022/07/31 01:19:57;;;;;;;11.95;2.60;;;;;;;;;;5023124;28;20033;-65
2022/07/31 01:22:26;;;;;;;9.98;2.60;;;;;;;;;;5028110;28;20037;-66
2022/07/31 01:25:11;;;;;;;9.35;2.50;;;;;;;;;;5022739;28;20037;-65
2022/07/31 01:27:37;;;;;;;11.90;2.92;;;;;;;;;;5024407;28;20463;-66
2022/07/31 01:30:03;;;;;;;15.82;3.22;;;;;;;;;;5006577;28;20653;-66
2022/07/31 01:32:35;;;;;;;13.25;3.47;;;;;;;;;;5026734;28;20068;-66
2022/07/31 01:35:06;;;;;;;13.73;2.92;;;;;;;;;;5025390;28;20306;-67
2022/07/31 01:37:50;;;;;;;9.70;2.53;;;;;;;;;;5029672;28;20041;-67
2022/07/31 01:40:22;;;;;;;9.45;2.80;;;;;;;;;;5017278;28;22160;-66
2022/07/31 01:42:51;;;;;;;12.38;2.78;;;;;;;;;;5010083;28;20486;-67
2022/07/31 01:45:20;;;;;;;8.25;2.85;;;;;;;;;;5008798;28;20407;-67
2022/07/31 01:47:47;;;;;;;12.02;3.25;;;;;;;;;;5028385;28;20063;-66
2022/07/31 01:50:13;;;;;;;11.80;2.90;;;;;;;;;;5004992;28;20021;-66
2022/07/31 01:52:40;;;;;;;12.00;2.83;;;;;;;;;;5024931;28;20093;-67
2022/07/31 01:55:07;;;;;;;9.82;3.10;;;;;;;;;;5020834;28;20827;-65
2022/07/31 01:57:34;;;;;;;12.63;3.17;;;;;;;;;;5021997;28;20428;-67
2022/07/31 02:00:01;;;;;;;9.38;3.03;;;;;;;;;;5025295;28;20577;-67
2022/07/31 02:02:28;;;;;;;10.02;2.83;;;;;;;;;;5009456;28;20041;-67
2022/07/31 02:04:55;;;;;;;12.32;3.10;;;;;;;;;;5028008;28;21019;-66
2022/07/31 02:07:22;;;;;;;11.88;2.80;;;;;;;;;;5025671;28;20082;-66
2022/07/31 02:09:48;;;;;;;10.25;2.95;;;;;;;;;;5024986;28;20021;-66
2022/07/31 02:12:15;;;;;;;9.65;3.10;;;;;;;;;;5022663;28;20036;-67
2022/07/31 02:14:41;;;;;;;8.27;2.80;;;;;;;;;;5026059;28;20112;-67
2022/07/31 02:17:08;;;;;;;10.75;2.83;;;;;;;;;;5025121;28;20064;-66
2022/07/31 02:19:35;;;;;;;9.40;2.60;;;;;;;;;;5025640;28;20645;-66
2022/07/31 02:22:01;;;;;;;8.45;2.67;;;;;;;;;;5019250;28;20037;-66
2022/07/31 02:24:28;;;;;;;9.65;2.85;;;;;;;;;;5000573;28;20024;-66
2022/07/31 02:26:54;;;;;;;8.35;2.67;;;;;;;;;;5008800;28;20147;-66
2022/07/31 02:29:21;;;;;;;8.13;2.50;;;;;;;;;;5020085;28;20025;-66
2022/07/31 02:31:48;;;;;;;10.68;2.95;;;;;;;;;;5021180;28;20098;-67
2022/07/31 02:34:14;;;;;;;9.80;2.85;;;;;;;;;;5024430;28;20056;-66
2022/07/31 02:36:41;;;;;;;10.40;2.88;;;;;;;;;;5006923;28;20498;-68
2022/07/31 02:39:08;;;;;;;10.73;2.75;;;;;;;;;;5003369;28;20579;-66
2022/07/31 02:41:35;;;;;;;9.25;2.85;;;;;;;;;;5018115;28;20111;-66
2022/07/31 02:44:01;;;;;;;9.60;2.50;;;;;;;;;;5015901;28;20032;-66
2022/07/31 02:46:27;;;;;;;10.50;3.00;;;;;;;;;;5019942;28;20644;-67
2022/07/31 02:48:54;;;;;;;8.15;2.58;;;;;;;;;;5009080;28;20021;-66
2022/07/31 02:51:21;;;;;;;9.93;3.05;;;;;;;;;;5024507;28;20049;-66
2022/07/31 02:53:47;;;;;;;11.77;2.90;;;;;;;;;;5026765;28;20029;-66
2022/07/31 02:56:14;;;;;;;10.45;2.85;;;;;;;;;;5022852;28;20563;-66
2022/07/31 02:58:40;;;;;;;7.70;2.67;;;;;;;;;;5024736;28;20148;-66
2022/07/31 03:01:07;;;;;;;8.70;2.80;;;;;;;;;;5023649;28;20090;-66
2022/07/31 03:03:33;;;;;;;9.10;2.80;;;;;;;;;;5025352;28;20136;-66
2022/07/31 03:05:59;;;;;;;9.40;3.10;;;;;;;;;;5006572;28;20025;-66
2022/07/31 03:08:26;;;;;;;8.65;2.83;;;;;;;;;;5026078;28;20350;-65
2022/07/31 03:10:52;;;;;;;11.45;3.28;;;;;;;;;;5026027;28;20558;-65
2022/07/31 03:13:19;;;;;;;10.95;2.60;;;;;;;;;;5024559;28;20371;-66
2022/07/31 03:15:46;;;;;;;10.93;2.92;;;;;;;;;;5022381;28;20057;-66
2022/07/31 03:18:13;;;;;;;10.30;3.22;;;;;;;;;;5022038;28;20025;-66
2022/07/31 03:20:41;;;;;;;7.38;2.78;;;;;;;;;;5025630;28;20063;-66
2022/07/31 03:23:09;;;;;;;13.98;3.28;;;;;;;;;;5005453;28;20371;-66
2022/07/31 03:25:35;;;;;;;11.70;3.15;;;;;;;;;;5024945;28;20053;-66
2022/07/31 03:28:01;;;;;;;10.82;3.10;;;;;;;;;;4997882;28;20061;-66
2022/07/31 03:30:27;;;;;;;9.40;3.17;;;;;;;;;;5022344;28;20461;-66
2022/07/31 03:32:53;;;;;;;10.48;3.40;;;;;;;;;;5018229;28;20033;-66
2022/07/31 03:35:20;;;;;;;9.32;3.00;;;;;;;;;;5023945;28;20603;-67
2022/07/31 03:37:46;;;;;;;11.98;3.20;;;;;;;;;;5007454;28;20543;-67
2022/07/31 03:40:12;;;;;;;9.75;3.20;;;;;;;;;;5000199;28;20029;-67
2022/07/31 03:42:39;;;;;;;9.18;2.70;;;;;;;;;;5006710;28;20063;-66
2022/07/31 03:45:05;;;;;;;9.45;2.70;;;;;;;;;;5021140;28;20331;-66
2022/07/31 03:47:31;;;;;;;9.75;3.00;;;;;;;;;;5000141;28;20384;-66
2022/07/31 03:50:00;;;;;;;12.02;3.22;;;;;;;;;;5015851;28;20114;-67
2022/07/31 03:52:26;;;;;;;11.00;3.33;;;;;;;;;;5014211;28;20925;-67
2022/07/31 03:54:53;;;;;;;11.13;3.17;;;;;;;;;;4997060;28;20293;-67
2022/07/31 03:57:20;;;;;;;11.00;3.53;;;;;;;;;;5020635;28;20036;-66
2022/07/31 03:59:48;;;;;;;11.00;3.40;;;;;;;;;;5025276;28;20078;-65
2022/07/31 04:02:15;;;;;;;10.38;3.15;;;;;;;;;;5024378;28;20210;-69
2022/07/31 04:04:42;;;;;;;9.38;3.22;;;;;;;;;;5025714;28;20060;-67
2022/07/31 04:07:09;;;;;;;9.48;3.13;;;;;;;;;;5024226;28;20147;-66
2022/07/31 04:09:35;;;;;;;12.35;3.50;;;;;;;;;;5024647;28;20095;-67
2022/07/31 04:12:01;;;;;;;8.57;3.17;;;;;;;;;;5022144;28;20437;-66
2022/07/31 04:14:27;;;;;;;12.95;3.20;;;;;;;;;;5024899;28;20037;-66
2022/07/31 04:16:54;;;;;;;13.20;3.47;;;;;;;;;;5025568;28;20545;-68
2022/07/31 04:19:20;;;;;;;10.93;2.97;;;;;;;;;;5021543;28;20386;-66
2022/07/31 04:21:46;;;;;;;8.95;2.72;;;;;;;;;;5024429;28;20768;-65
2022/07/31 04:24:15;;;;;;;9.95;3.22;;;;;;;;;;5021967;28;20047;-67
2022/07/31 04:26:42;;;;;;;9.60;3.20;;;;;;;;;;5027624;28;20550;-66
2022/07/31 04:29:08;;;;;;;12.75;3.40;;;;;;;;;;5025867;28;20289;-66
2022/07/31 04:31:34;;;;;;;9.52;2.80;;;;;;;;;;5025607;28;20021;-66
2022/07/31 04:34:01;;;;;;;12.00;3.05;;;;;;;;;;5023975;28;20376;-66
2022/07/31 04:36:28;;;;;;;10.35;2.97;;;;;;;;;;5023346;28;20436;-66
2022/07/31 04:38:54;;;;;;;9.52;2.90;;;;;;;;;;5006623;28;20040;-66
2022/07/31 04:41:20;;;;;;;11.15;3.13;;;;;;;;;;5023237;28;20051;-67
2022/07/31 04:43:46;;;;;;;8.45;3.22;;;;;;;;;;5023069;28;20068;-67
2022/07/31 04:46:12;;;;;;;10.73;3.28;;;;;;;;;;5024947;28;20573;-67
2022/07/31 04:48:38;;;;;;;11.25;3.17;;;;;;;;;;5027636;28;20364;-67
2022/07/31 04:51:04;;;;;;;9.90;3.30;;;;;;;;;;5023508;28;20029;-67
2022/07/31 04:53:30;;;;;;;10.35;3.00;;;;;;;;;;5027397;28;20049;-66
2022/07/31 04:58:41;;;;;;;8.73;3.00;;;;;;;;;;5029746;28;20098;-66
2022/07/31 05:01:07;;;;;;;11.20;3.20;;;;;;;;;;5024913;28;20044;-66
2022/07/31 05:03:33;;;;;;;10.43;3.13;;;;;;;;;;5024241;28;20516;-66
2022/07/31 05:06:12;;;;;;;13.45;3.47;;;;;;;;;;5007904;28;20025;-67
2022/07/31 05:08:38;;;;;;;10.38;3.40;;;;;;;;;;5010585;28;20043;-68
2022/07/31 05:11:23;;;;;;;12.55;3.33;;;;;;;;;;5020564;28;20033;-68
2022/07/31 05:13:50;;;;;;;14.27;4.03;;;;;;;;;;5023321;28;20050;-66
2022/07/31 05:16:17;;;;;;;12.73;3.50;;;;;;;;;;5016156;28;20052;-66
2022/07/31 05:18:44;;;;;;;14.43;3.55;;;;;;;;;;5026589;28;20044;-67
2022/07/31 05:21:10;;;;;;;10.07;3.30;;;;;;;;;;5028717;28;20036;-67
2022/07/31 05:23:37;;;;;;;13.65;3.20;;;;;;;;;;5010819;28;20067;-67
2022/07/31 05:26:13;;;;;;;11.68;3.17;;;;;;;;;;5013427;28;20779;-66
2022/07/31 05:28:39;;;;;;;;;;;;;;;;;;5027708;28;20480;-67
2022/07/31 05:31:06;;;;;;;9.50;3.20;;;;;;;;;;5027731;28;19990;-67
2022/07/31 05:33:32;;;;;;;11.07;3.10;;;;;;;;;;5011704;28;20802;-67
2022/07/31 05:35:59;;;;;;;11.80;3.20;;;;;;;;;;5026383;28;20698;-66
2022/07/31 05:38:26;;;;;;;14.75;3.28;;;;;;;;;;5006990;28;20097;-67
2022/07/31 05:40:52;;;;;;;12.05;3.45;;;;;;;;;;5022262;28;20037;-67
2022/07/31 05:43:19;;;;;;;11.40;3.40;;;;;;;;;;5002092;28;20088;-67
2022/07/31 05:45:48;;;;;;;16.48;3.65;;;;;;;;;;5029019;28;20562;-67
2022/07/31 05:48:14;;;;;;;13.02;3.70;;;;;;;;;;5026722;28;20037;-67
2022/07/31 05:50:42;;;;;;;8.77;3.10;;;;;;;;;;5030687;28;20119;-67
2022/07/31 05:53:10;;;;;;;12.95;3.20;;;;;;;;;;5022490;28;20480;-67
2022/07/31 05:55:37;;;;;;;8.70;3.13;;;;;;;;;;5025229;28;20415;-66
2022/07/31 05:58:03;;;;;;;11.63;3.45;;;;;;;;;;5005065;28;20410;-67
2022/07/31 06:00:30;;;;;;;9.52;3.17;;;;;;;;;;5007121;28;20033;-66
2022/07/31 06:02:56;;;;;;;10.57;3.50;;;;;;;;;;5025227;28;20400;-67
2022/07/31 06:05:22;;;;;;;12.02;3.53;;;;;;;;;;5007889;28;20025;-67
2022/07/31 06:07:50;;;;;;;11.38;3.75;;;;;;;;;;5001800;28;20496;-67
2022/07/31 06:10:16;;;;;;;11.63;3.58;;;;;;;;;;5024825;28;20269;-68
2022/07/31 06:12:42;;;;;;;8.93;3.40;;;;;;;;;;5025921;28;20069;-68
2022/07/31 06:15:08;;;;;;;10.15;3.20;;;;;;;;;;5020498;28;20522;-68
2022/07/31 06:17:34;;;;;;;8.43;2.80;;;;;;;;;;5024846;28;20536;-68
2022/07/31 06:20:00;;;;;;;9.73;2.83;;;;;;;;;;5004367;28;20449;-68
2022/07/31 06:22:26;;;;;;;11.38;2.78;;;;;;;;;;5001786;28;20094;-68
2022/07/31 06:24:53;;;;;;;12.43;3.20;;;;;;;;;;5024778;28;20029;-67
2022/07/31 06:27:19;;;;;;;8.90;2.63;;;;;;;;;;5023929;28;20767;-67
2022/07/31 06:29:45;;;;;;;9.65;2.75;;;;;;;;;;5025694;28;20226;-68
2022/07/31 06:32:11;;;;;;;11.60;2.67;;;;;;;;;;5023634;28;20913;-67
2022/07/31 06:34:37;;;;;;;10.90;2.83;;;;;;;;;;5026458;28;20052;-67
2022/07/31 06:37:03;;;;;;;9.40;2.55;;;;;;;;;;5007440;28;20029;-67
2022/07/31 06:39:29;;;;;;;9.60;2.55;;;;;;;;;;5017455;28;20504;-67
2022/07/31 06:41:55;;;;;;;10.48;3.20;;;;;;;;;;5017077;28;20628;-67
2022/07/31 06:44:22;;;;;;;8.57;2.60;;;;;;;;;;5017907;28;20563;-67
2022/07/31 06:46:49;;;;;;;9.55;2.58;;;;;;;;;;5023855;28;20048;-67
2022/07/31 06:49:15;;;;;;;8.43;2.30;;;;;;;;;;5025669;28;20029;-67
2022/07/31 06:51:41;;;;;;;9.00;2.70;;;;;;;;;;5025414;28;20577;-68
2022/07/31 06:54:08;;;;;;;9.50;2.65;;;;;;;;;;5022862;28;20083;-67
2022/07/31 06:56:35;;;;;;;10.18;2.90;;;;;;;;;;5026180;28;20033;-68
2022/07/31 06:59:02;;;;;;;8.25;2.90;;;;;;;;;;5006756;28;20391;-68
2022/07/31 07:01:29;;;;;;;8.52;2.42;;;;;;;;;;5026125;28;20041;-68
2022/07/31 07:03:55;;;;;;;8.52;2.55;;;;;;;;;;5022452;28;20029;-68
2022/07/31 07:06:21;;;;;;;9.55;3.05;;;;;;;;;;5024876;28;20033;-68
2022/07/31 07:08:47;;;;;;;8.15;2.80;;;;;;;;;;5023624;28;20122;-68
2022/07/31 07:11:13;;;;;;;8.98;2.80;;;;;;;;;;5023768;28;20360;-68
2022/07/31 07:13:40;;;;;;;11.63;3.25;;;;;;;;;;5021804;28;20041;-68
2022/07/31 07:16:06;;;;;;;11.25;3.38;;;;;;;;;;5024027;28;20123;-68
2022/07/31 07:18:32;;;;;;;11.10;3.05;;;;;;;;;;5030093;28;20367;-68
2022/07/31 07:20:58;;;;;;;8.98;2.75;;;;;;;;;;5022205;28;20114;-68
2022/07/31 07:23:25;;;;;;;9.38;2.80;;;;;;;;;;5027126;28;20028;-68
2022/07/31 07:25:51;;;;;;;10.10;2.80;;;;;;;;;;5027910;28;20039;-68
2022/07/31 07:28:18;;;;;;;14.00;2.80;;;;;;;;;;5025601;28;20598;-68
2022/07/31 07:30:44;;;;;;;8.73;2.55;;;;;;;;;;5008505;28;20432;-69
2022/07/31 07:33:10;;;;;;;10.35;2.90;;;;;;;;;;5025437;28;20060;-67
2022/07/31 07:35:37;;;;;;;8.93;2.58;;;;;;;;;;5026848;28;20136;-68
2022/07/31 07:38:03;;;;;;;12.23;3.08;;;;;;;;;;5008396;28;20435;-68
2022/07/31 07:40:30;;;;;;;10.90;3.30;;;;;;;;;;5020442;28;20037;-68
2022/07/31 07:42:56;;;;;;;9.52;3.03;;;;;;;;;;5022883;28;20037;-68
2022/07/31 07:45:23;;;;;;;12.25;3.28;;;;;;;;;;5027549;28;20110;-68
2022/07/31 07:47:49;;;;;;;9.27;2.38;;;;;;;;;;5027614;28;20836;-68
2022/07/31 07:50:15;;;;;;;11.23;3.20;;;;;;;;;;5026323;28;20025;-68
2022/07/31 07:52:42;;;;;;;11.90;3.03;;;;;;;;;;5009332;28;20057;-68
2022/07/31 07:55:08;;;;;;;8.68;2.83;;;;;;;;;;5007535;28;20460;-68
2022/07/31 07:57:35;;;;;;;8.32;2.50;;;;;;;;;;5006713;28;20136;-67
2022/07/31 08:00:03;;;;;;;10.35;3.00;;;;;;;;;;5022476;28;20442;-66
2022/07/31 08:02:29;;;;;;;8.75;2.67;;;;;;;;;;5024017;28;20115;-67
2022/07/31 08:04:56;;;;;;;8.70;2.70;;;;;;;;;;5024886;28;20035;-67
2022/07/31 08:07:29;;;;;;;8.63;2.42;;;;;;;;;;5021514;28;20040;-68
2022/07/31 08:09:55;;;;;;;8.15;2.55;;;;;;;;;;5006032;28;20579;-67
2022/07/31 08:12:21;;;;;;;8.85;2.72;;;;;;;;;;5021464;28;20033;-68
2022/07/31 08:14:47;;;;;;;6.63;2.20;;;;;;;;;;5022332;28;20068;-68
2022/07/31 08:17:14;;;;;;;10.50;2.67;;;;;;;;;;5020201;28;20079;-68
2022/07/31 08:19:40;;;;;;;8.23;2.72;;;;;;;;;;5023006;28;20459;-68
2022/07/31 08:22:07;;;;;;;10.45;2.88;;;;;;;;;;5020919;28;20347;-68
2022/07/31 08:24:33;;;;;;;10.15;2.90;;;;;;;;;;5021158;28;20036;-68
2022/07/31 08:29:44;;;;;;;9.18;3.20;;;;;;;;;;5023304;28;20475;-68
2022/07/31 08:32:10;;;;;;;10.57;3.30;;;;;;;;;;5024826;28;20429;-69
2022/07/31 08:34:36;;;;;;;8.25;3.15;;;;;;;;;;5005516;28;20044;-68
2022/07/31 08:37:05;;;;;;;11.40;3.20;;;;;;;;;;5023862;28;20111;-68
2022/07/31 08:39:31;;;;;;;8.02;2.72;;;;;;;;;;5023834;28;20107;-67
2022/07/31 08:41:57;;;;;;;9.80;3.15;;;;;;;;;;5021446;28;20401;-68
2022/07/31 08:44:23;;;;;;;9.10;2.95;;;;;;;;;;5007232;28;20440;-68
2022/07/31 08:46:53;;;;;;;11.50;3.63;;;;;;;;;;5003538;28;20037;-67
2022/07/31 08:49:21;;;;;;;7.85;3.25;;;;;;;;;;5004490;28;20029;-68
2022/07/31 08:51:48;;;;;;;8.77;3.10;;;;;;;;;;5022925;28;20060;-68
2022/07/31 08:54:14;;;;;;;10.05;3.00;;;;;;;;;;5024062;28;20033;-68
2022/07/31 08:56:41;;;;;;;9.18;2.72;;;;;;;;;;5004928;28;20120;-68
2022/07/31 08:59:07;;;;;;;8.15;3.05;;;;;;;;;;4994922;28;20144;-68
2022/07/31 09:01:34;;;;;;;9.63;3.25;;;;;;;;;;5016994;28;20126;-67
2022/07/31 09:04:00;;;;;;;8.98;2.85;;;;;;;;;;5013792;28;20455;-69
2022/07/31 09:06:26;;;;;;;11.10;3.10;;;;;;;;;;5023588;28;20029;-69
2022/07/31 09:08:54;;;;;;;9.88;2.67;;;;;;;;;;5021439;28;20119;-69
2022/07/31 09:11:21;;;;;;;7.45;2.53;;;;;;;;;;5024430;28;20033;-69
2022/07/31 09:14:00;;;;;;;7.50;2.72;;;;;;;;;;5025581;28;20033;-68
2022/07/31 09:16:27;;;;;;;9.70;4.60;;;;;;;;;;5025939;28;20029;-69
2022/07/31 09:18:57;;;;;;;7.68;3.40;;;;;;;;;;5007078;28;20530;-69
2022/07/31 09:21:23;;;;;;;11.65;6.90;;;;;;;;;;5025846;28;20519;-69
2022/07/31 09:23:49;;;;;;;12.85;7.13;;;;;;;;;;5025452;28;20787;-69
2022/07/31 09:26:15;;;;;;;9.85;4.22;;;;;;;;;;5022130;28;20501;-68
2022/07/31 09:28:43;;;;;;;10.02;4.65;;;;;;;;;;5023261;28;20519;-68
2022/07/31 09:31:10;;;;;;;10.05;3.75;;;;;;;;;;5002075;28;21117;-68
2022/07/31 09:33:38;;;;;;;8.63;3.45;;;;;;;;;;5024907;28;20115;-68
2022/07/31 09:36:05;;;;;;;6.78;2.70;;;;;;;;;;5014154;28;20172;-67
2022/07/31 09:38:31;;;;;;;8.32;3.10;;;;;;;;;;5007282;28;20295;-68
2022/07/31 09:41:08;;;;;;;8.93;3.10;;;;;;;;;;5024210;28;20322;-68
2022/07/31 09:43:34;;;;;;;11.57;5.60;;;;;;;;;;5026012;28;20555;-68
2022/07/31 09:46:01;;;;;;;6.80;3.03;;;;;;;;;;5006916;28;20517;-67
2022/07/31 09:48:27;;;;;;;9.77;3.22;;;;;;;;;;5029108;28;20496;-68
2022/07/31 09:50:54;;;;;;;8.73;4.07;;;;;;;;;;5027635;28;20403;-67
2022/07/31 09:53:20;;;;;;;8.95;3.10;;;;;;;;;;5014356;28;20162;-67
2022/07/31 09:55:53;;;;;;;8.98;3.50;;;;;;;;;;5028338;28;20037;-68
2022/07/31 09:58:20;;;;;;;6.93;2.53;;;;;;;;;;5026622;28;20867;-68
2022/07/31 10:00:47;;;;;;;9.73;2.60;;;;;;;;;;5028079;28;20052;-65
2022/07/31 10:03:16;;;;;;;7.07;2.75;;;;;;;;;;5026442;28;20040;-66
2022/07/31 10:05:43;;;;;;;8.32;2.30;;;;;;;;;;5028990;28;20029;-66
2022/07/31 10:08:10;;;;;;;6.68;2.40;;;;;;;;;;5027213;28;20040;-66
2022/07/31 10:10:36;;;;;;;6.63;2.20;;;;;;;;;;5009596;28;20056;-66
2022/07/31 10:13:07;;;;;;;6.05;2.20;;;;;;;;;;5006322;28;20110;-66
2022/07/31 10:15:35;;;;;;;6.78;2.58;;;;;;;;;;5027852;28;20037;-66
2022/07/31 10:18:02;;;;;;;5.07;1.90;;;;;;;;;;5025250;28;20503;-67
2022/07/31 10:20:30;;;;;;;6.40;2.10;;;;;;;;;;5029379;28;20316;-66
2022/07/31 10:22:58;;;;;;;5.90;2.00;;;;;;;;;;5028666;28;20049;-68
2022/07/31 10:25:27;;;;;;;5.55;2.00;;;;;;;;;;5028845;28;20033;-66
2022/07/31 10:27:53;;;;;;;6.60;2.33;;;;;;;;;;5027937;28;20120;-68
2022/07/31 10:30:20;;;;;;;5.78;2.30;;;;;;;;;;5024543;28;20463;-68
2022/07/31 10:32:46;;;;;;;5.38;2.03;;;;;;;;;;5028081;28;20029;-67
2022/07/31 10:35:12;;;;;;;8.45;2.63;;;;;;;;;;5025340;28;20455;-67
2022/07/31 10:37:43;;;;;;;7.20;2.30;;;;;;;;;;5008197;28;20021;-67
2022/07/31 10:40:28;;;;;;;6.18;2.22;;;;;;;;;;5010169;28;20060;-67
2022/07/31 10:43:12;;;;;;;6.63;2.35;;;;;;;;;;5011809;28;20131;-67
2022/07/31 10:45:48;;;;;;;4.75;1.70;;;;;;;;;;5011136;28;20029;-67
2022/07/31 10:48:14;;;;;;;5.05;1.98;;;;;;;;;;5024606;28;20017;-67
2022/07/31 10:50:40;;;;;;;5.35;1.75;;;;;;;;;;5007501;28;20091;-67
2022/07/31 10:53:10;;;;;;;7.72;1.90;;;;;;;;;;5022008;28;20052;-65
2022/07/31 10:55:36;;;;;;;6.53;1.98;;;;;;;;;;5026718;28;20025;-65
2022/07/31 10:58:14;;;;;;;7.32;1.80;;;;;;;;;;5012551;28;20587;-65
2022/07/31 11:00:40;;;;;;;6.38;1.95;;;;;;;;;;5006893;28;20033;-66
2022/07/31 11:03:17;;;;;;;5.90;1.50;;;;;;;;;;5016427;28;20064;-65
2022/07/31 11:05:54;;;;;;;6.38;1.77;;;;;;;;;;5028297;28;20055;-66
2022/07/31 11:08:20;;;;;;;5.32;1.60;;;;;;;;;;5026211;28;20025;-67
2022/07/31 11:10:53;;;;;;;6.53;1.90;;;;;;;;;;5013308;28;20532;-66
2022/07/31 11:13:20;;;;;;;5.70;1.60;;;;;;;;;;5017575;28;20040;-66
2022/07/31 11:15:46;;;;;;;5.57;1.92;;;;;;;;;;5017538;28;20094;-66
2022/07/31 11:18:12;;;;;;;4.30;1.48;;;;;;;;;;5025195;28;20112;-66
2022/07/31 11:20:38;;;;;;;7.85;1.90;;;;;;;;;;5028390;28;20031;-66
2022/07/31 11:23:05;;;;;;;6.35;1.85;;;;;;;;;;5024048;28;20037;-67
2022/07/31 11:25:33;;;;;;;6.28;2.17;;;;;;;;;;5026454;28;20025;-65
2022/07/31 11:28:17;;;;;;;10.00;2.00;;;;;;;;;;5005721;28;20847;-64
2022/07/31 11:30:53;;;;;;;6.57;1.98;;;;;;;;;;5025491;28;20025;-65
2022/07/31 11:33:40;;;;;;;7.18;2.17;;;;;;;;;;5024362;28;20043;-65
2022/07/31 11:36:18;;;;;;;8.68;2.80;;;;;;;;;;5024307;28;20068;-65
2022/07/31 11:38:45;;;;;;;8.02;2.55;;;;;;;;;;5024067;28;20043;-64
2022/07/31 11:41:12;;;;;;;6.28;1.92;;;;;;;;;;5006023;28;20438;-65
2022/07/31 11:43:42;;;;;;;8.40;2.20;;;;;;;;;;5026341;28;20033;-66
2022/07/31 11:46:08;;;;;;;7.70;2.20;;;;;;;;;;5025225;28;20053;-65
2022/07/31 11:48:37;;;;;;;5.10;1.77;;;;;;;;;;5025476;28;20120;-65
2022/07/31 11:51:03;;;;;;;6.35;1.80;;;;;;;;;;5022924;28;20113;-66
2022/07/31 11:53:29;;;;;;;4.97;1.70;;;;;;;;;;5026388;28;20118;-66
2022/07/31 11:55:59;;;;;;;4.95;1.65;;;;;;;;;;5026344;28;20037;-65
2022/07/31 11:58:29;;;;;;;6.57;1.77;;;;;;;;;;5028249;28;20036;-65
2022/07/31 12:00:56;;;;;;;6.85;2.00;;;;;;;;;;5010361;28;20033;-66
2022/07/31 12:03:25;;;;;;;9.57;2.30;;;;;;;;;;5031802;28;20029;-67
2022/07/31 12:05:51;;;;;;;11.15;5.05;;;;;;;;;;5029896;28;20087;-67
2022/07/31 12:08:18;;;;;;;9.98;3.70;;;;;;;;;;5029266;28;20132;-67
2022/07/31 12:10:45;;;;;;;9.23;3.17;;;;;;;;;;5013463;28;20031;-67
2022/07/31 12:13:15;;;;;;;9.80;4.03;;;;;;;;;;5014146;28;20387;-66
2022/07/31 12:15:41;;;;;;;9.07;3.10;;;;;;;;;;5031379;28;20380;-67
2022/07/31 12:18:07;;;;;;;8.63;3.42;;;;;;;;;;5028533;28;20449;-66
2022/07/31 12:20:34;;;;;;;7.93;2.55;;;;;;;;;;5027981;28;20777;-68
2022/07/31 12:23:00;;;;;;;6.28;2.08;;;;;;;;;;5026273;28;20068;-69
2022/07/31 12:25:26;;;;;;;8.15;2.15;;;;;;;;;;5009368;28;20128;-70
2022/07/31 12:27:56;;;;;;;5.13;1.60;;;;;;;;;;5020370;28;20387;-69
2022/07/31 12:30:25;;;;;;;5.78;1.85;;;;;;;;;;5029164;28;20036;-68
2022/07/31 12:32:51;;;;;;;6.88;2.00;;;;;;;;;;5030430;28;20478;-68
2022/07/31 12:35:17;;;;;;;5.72;1.60;;;;;;;;;;5027974;28;20215;-68
2022/07/31 12:37:49;;;;;;;4.88;1.65;;;;;;;;;;5031483;28;20388;-69
2022/07/31 12:40:22;;;;;;;7.72;1.90;;;;;;;;;;5024344;28;20025;-69
2022/07/31 12:42:48;;;;;;;6.50;2.00;;;;;;;;;;5027890;28;20836;-69
2022/07/31 12:45:15;;;;;;;5.10;1.70;;;;;;;;;;5023888;28;20036;-69
2022/07/31 12:47:41;;;;;;;4.95;1.80;;;;;;;;;;5028707;28;20025;-69
2022/07/31 12:50:07;;;;;;;5.63;1.63;;;;;;;;;;5025576;28;20499;-68
2022/07/31 12:52:33;;;;;;;6.88;1.58;;;;;;;;;;5029598;28;20332;-69
2022/07/31 12:55:02;;;;;;;6.75;1.58;;;;;;;;;;5027706;28;20040;-69
2022/07/31 12:57:28;;;;;;;5.25;1.80;;;;;;;;;;5027507;28;20315;-69
2022/07/31 12:59:54;;;;;;;8.05;2.10;;;;;;;;;;5028451;28;20031;-68
2022/07/31 13:02:20;;;;;;;7.20;2.10;;;;;;;;;;5030679;28;20032;-69
2022/07/31 13:04:46;;;;;;;6.70;2.15;;;;;;;;;;5028315;28;20091;-68
2022/07/31 13:07:13;;;;;;;9.68;2.35;;;;;;;;;;5027460;28;20033;-68
2022/07/31 13:09:40;;;;;;;7.40;2.50;;;;;;;;;;5028725;28;20060;-69
2022/07/31 13:12:06;;;;;;;5.88;1.90;;;;;;;;;;5028154;28;20029;-68
2022/07/31 13:14:33;;;;;;;6.15;2.20;;;;;;;;;;5030249;28;20040;-68
2022/07/31 13:16:59;;;;;;;5.85;2.10;;;;;;;;;;5025217;28;20031;-68
2022/07/31 13:19:26;;;;;;;7.40;2.00;;;;;;;;;;5029057;28;20090;-69
2022/07/31 13:21:52;;;;;;;6.10;2.13;;;;;;;;;;5030154;28;20052;-69
2022/07/31 13:24:18;;;;;;;4.60;1.70;;;;;;;;;;5027359;28;20037;-69
2022/07/31 13:26:44;;;;;;;6.25;2.10;;;;;;;;;;5015212;28;20199;-68
2022/07/31 13:29:11;;;;;;;6.97;2.47;;;;;;;;;;5028283;28;20029;-68
2022/07/31 13:31:37;;;;;;;6.88;2.45;;;;;;;;;;5026315;28;20021;-68
2022/07/31 13:34:04;;;;;;;7.10;2.15;;;;;;;;;;5027970;28;20153;-68
2022/07/31 13:36:30;;;;;;;7.85;1.70;;;;;;;;;;5028158;28;20033;-69
2022/07/31 13:38:56;;;;;;;6.40;1.88;;;;;;;;;;5027453;28;20758;-71
2022/07/31 13:41:29;;;;;;;6.82;2.35;;;;;;;;;;5026931;28;20105;-69
2022/07/31 13:43:56;;;;;;;5.68;1.80;;;;;;;;;;5006012;28;20033;-68
2022/07/31 13:46:22;;;;;;;4.90;1.65;;;;;;;;;;5026888;28;20108;-68
2022/07/31 13:48:50;;;;;;;7.22;1.73;;;;;;;;;;5027248;28;20437;-68
2022/07/31 13:51:16;;;;;;;6.40;1.60;;;;;;;;;;5026115;28;20025;-68
2022/07/31 13:53:42;;;;;;;7.60;1.52;;;;;;;;;;5008513;28;20044;-69
2022/07/31 13:56:08;;;;;;;4.78;1.30;;;;;;;;;;4994058;28;20037;-68
2022/07/31 13:58:34;;;;;;;4.55;1.38;;;;;;;;;;5008019;28;20029;-70
2022/07/31 14:01:00;;;;;;;5.53;1.45;;;;;;;;;;5005052;28;20364;-70
2022/07/31 14:03:26;;;;;;;6.40;1.40;;;;;;;;;;5008874;28;20120;-71
2022/07/31 14:05:53;;;;;;;4.30;1.30;;;;;;;;;;5011338;28;20056;-69
2022/07/31 14:08:20;;;;;;;3.40;1.17;;;;;;;;;;4989958;28;20037;-69
2022/07/31 14:10:46;;;;;;;5.68;1.60;;;;;;;;;;4989809;28;20489;-69
2022/07/31 14:13:13;;;;;;;6.00;1.60;;;;;;;;;;5008421;28;20520;-68
2022/07/31 14:15:39;;;;;;;5.13;1.55;;;;;;;;;;5008339;28;20025;-68
2022/07/31 14:18:05;;;;;;;5.28;1.77;;;;;;;;;;5009377;28;20037;-69
2022/07/31 14:20:32;;;;;;;4.72;1.58;;;;;;;;;;5008679;28;20037;-69
2022/07/31 14:22:58;;;;;;;5.72;1.60;;;;;;;;;;4989549;28;20045;-67
2022/07/31 14:25:24;;;;;;;4.78;1.45;;;;;;;;;;4989894;28;20051;-70
2022/07/31 14:27:52;;;;;;;5.35;1.30;;;;;;;;;;5003949;28;20430;-70
2022/07/31 14:30:19;;;;;;;5.47;1.52;;;;;;;;;;5006909;28;20336;-68
2022/07/31 14:32:45;;;;;;;5.70;1.73;;;;;;;;;;5008242;28;20777;-69
2022/07/31 14:35:11;;;;;;;3.15;1.10;;;;;;;;;;5007536;28;20030;-68
2022/07/31 14:37:40;;;;;;;3.97;1.35;;;;;;;;;;5006500;28;20029;-67
2022/07/31 14:40:06;;;;;;;6.78;1.40;;;;;;;;;;5005248;28;20101;-68
2022/07/31 14:42:33;;;;;;;6.15;1.40;;;;;;;;;;5005975;28;20447;-70
2022/07/31 14:45:01;;;;;;;4.70;1.60;;;;;;;;;;4989072;28;20082;-68